sensor_id;sensor_type;location;lat;lon;timestamp;temperature;humidity
74153;DHT22;62505;46.070;14.492;2023-09-19T00:02:04;24.90;81.40
74153;DHT22;62505;46.070;14.492;2023-09-19T00:04:33;25.00;81.50
74153;DHT22;62505;46.070;14.492;2023-09-19T00:07:00;25.00;81.80
74153;DHT22;62505;46.070;14.492;2023-09-19T00:09:28;25.00;81.70
74153;DHT22;62505;46.070;14.492;2023-09-19T00:11:55;25.00;81.70
74153;DHT22;62505;46.070;14.492;2023-09-19T00:14:25;25.00;81.80
74153;DHT22;62505;46.070;14.492;2023-09-19T00:16:52;25.00;81.80
74153;DHT22;62505;46.070;14.492;2023-09-19T00:19:20;25.00;81.70
74153;DHT22;62505;46.070;14.492;2023-09-19T00:21:48;25.00;81.80
74153;DHT22;62505;46.070;14.492;2023-09-19T00:24:15;25.00;81.90
74153;DHT22;62505;46.070;14.492;2023-09-19T00:26:43;25.00;82.60
74153;DHT22;62505;46.070;14.492;2023-09-19T00:29:12;24.90;81.80
74153;DHT22;62505;46.070;14.492;2023-09-19T00:31:43;25.00;81.90
74153;DHT22;62505;46.070;14.492;2023-09-19T00:34:10;25.00;81.90
74153;DHT22;62505;46.070;14.492;2023-09-19T00:36:37;25.00;81.90
74153;DHT22;62505;46.070;14.492;2023-09-19T00:39:07;25.00;81.90
74153;DHT22;62505;46.070;14.492;2023-09-19T00:41:34;25.00;81.90
74153;DHT22;62505;46.070;14.492;2023-09-19T00:44:02;24.90;81.90
74153;DHT22;62505;46.070;14.492;2023-09-19T00:46:30;24.90;81.90
74153;DHT22;62505;46.070;14.492;2023-09-19T00:48:58;24.90;82.00
74153;DHT22;62505;46.070;14.492;2023-09-19T00:51:25;24.90;82.00
74153;DHT22;62505;46.070;14.492;2023-09-19T00:53:54;24.90;82.00
74153;DHT22;62505;46.070;14.492;2023-09-19T00:56:22;24.90;82.10
74153;DHT22;62505;46.070;14.492;2023-09-19T00:58:49;24.90;82.10
74153;DHT22;62505;46.070;14.492;2023-09-19T01:01:17;24.90;82.10
74153;DHT22;62505;46.070;14.492;2023-09-19T01:03:45;24.90;82.10
74153;DHT22;62505;46.070;14.492;2023-09-19T01:06:12;24.90;82.10
74153;DHT22;62505;46.070;14.492;2023-09-19T01:08:39;24.90;82.20
74153;DHT22;62505;46.070;14.492;2023-09-19T01:11:12;24.90;82.10
74153;DHT22;62505;46.070;14.492;2023-09-19T01:13:50;24.90;82.20
74153;DHT22;62505;46.070;14.492;2023-09-19T01:16:27;24.90;82.20
74153;DHT22;62505;46.070;14.492;2023-09-19T01:19:01;24.90;82.30
74153;DHT22;62505;46.070;14.492;2023-09-19T01:21:34;24.90;82.30
74153;DHT22;62505;46.070;14.492;2023-09-19T01:24:50;24.90;82.30
74153;DHT22;62505;46.070;14.492;2023-09-19T01:30:26;24.90;82.30
74153;DHT22;62505;46.070;14.492;2023-09-19T01:32:55;24.90;82.10
74153;DHT22;62505;46.070;14.492;2023-09-19T01:35:23;24.90;82.20
74153;DHT22;62505;46.070;14.492;2023-09-19T01:37:50;24.90;82.40
74153;DHT22;62505;46.070;14.492;2023-09-19T01:40:20;24.90;82.40
74153;DHT22;62505;46.070;14.492;2023-09-19T01:42:55;24.90;82.40
74153;DHT22;62505;46.070;14.492;2023-09-19T01:45:31;24.90;82.30
74153;DHT22;62505;46.070;14.492;2023-09-19T01:48:09;24.90;82.40
74153;DHT22;62505;46.070;14.492;2023-09-19T01:50:44;24.90;82.30
74153;DHT22;62505;46.070;14.492;2023-09-19T01:53:22;24.90;82.40
74153;DHT22;62505;46.070;14.492;2023-09-19T01:55:50;24.90;82.40
74153;DHT22;62505;46.070;14.492;2023-09-19T01:58:22;24.90;82.50
74153;DHT22;62505;46.070;14.492;2023-09-19T02:00:54;24.90;82.40
74153;DHT22;62505;46.070;14.492;2023-09-19T02:03:24;24.90;82.50
74153;DHT22;62505;46.070;14.492;2023-09-19T02:05:53;24.90;82.50
74153;DHT22;62505;46.070;14.492;2023-09-19T02:08:21;24.90;82.40
74153;DHT22;62505;46.070;14.492;2023-09-19T02:10:49;24.90;82.50
74153;DHT22;62505;46.070;14.492;2023-09-19T02:13:17;24.90;82.60
74153;DHT22;62505;46.070;14.492;2023-09-19T02:15:45;24.90;82.50
74153;DHT22;62505;46.070;14.492;2023-09-19T02:18:13;24.90;82.50
74153;DHT22;62505;46.070;14.492;2023-09-19T02:20:41;24.90;82.50
74153;DHT22;62505;46.070;14.492;2023-09-19T02:23:09;24.90;82.50
74153;DHT22;62505;46.070;14.492;2023-09-19T02:25:36;24.90;82.60
74153;DHT22;62505;46.070;14.492;2023-09-19T02:28:04;24.90;82.50
74153;DHT22;62505;46.070;14.492;2023-09-19T02:30:31;24.90;82.50
74153;DHT22;62505;46.070;14.492;2023-09-19T02:32:58;24.90;82.50
74153;DHT22;62505;46.070;14.492;2023-09-19T02:35:28;24.90;82.50
74153;DHT22;62505;46.070;14.492;2023-09-19T02:37:58;24.90;82.60
74153;DHT22;62505;46.070;14.492;2023-09-19T02:40:25;24.90;82.50
74153;DHT22;62505;46.070;14.492;2023-09-19T02:42:54;24.90;82.50
74153;DHT22;62505;46.070;14.492;2023-09-19T02:45:24;24.80;82.50
74153;DHT22;62505;46.070;14.492;2023-09-19T02:47:51;24.90;82.30
74153;DHT22;62505;46.070;14.492;2023-09-19T02:50:18;24.90;82.40
74153;DHT22;62505;46.070;14.492;2023-09-19T02:52:48;24.90;82.40
74153;DHT22;62505;46.070;14.492;2023-09-19T02:55:17;24.90;82.30
74153;DHT22;62505;46.070;14.492;2023-09-19T02:57:48;24.80;82.40
74153;DHT22;62505;46.070;14.492;2023-09-19T03:00:17;24.90;82.40
74153;DHT22;62505;46.070;14.492;2023-09-19T03:02:50;24.90;82.40
74153;DHT22;62505;46.070;14.492;2023-09-19T03:05:17;24.90;82.30
74153;DHT22;62505;46.070;14.492;2023-09-19T03:07:47;24.90;82.30
74153;DHT22;62505;46.070;14.492;2023-09-19T03:10:16;24.90;82.40
74153;DHT22;62505;46.070;14.492;2023-09-19T03:12:43;24.90;82.30
74153;DHT22;62505;46.070;14.492;2023-09-19T03:15:10;24.90;82.40
74153;DHT22;62505;46.070;14.492;2023-09-19T03:17:37;24.80;82.10
74153;DHT22;62505;46.070;14.492;2023-09-19T03:20:05;24.90;82.30
74153;DHT22;62505;46.070;14.492;2023-09-19T03:22:35;24.90;82.30
74153;DHT22;62505;46.070;14.492;2023-09-19T03:25:04;24.90;82.30
74153;DHT22;62505;46.070;14.492;2023-09-19T03:27:33;24.90;82.40
74153;DHT22;62505;46.070;14.492;2023-09-19T03:30:00;24.90;83.10
74153;DHT22;62505;46.070;14.492;2023-09-19T03:32:31;24.80;82.30
74153;DHT22;62505;46.070;14.492;2023-09-19T03:34:58;24.90;82.30
74153;DHT22;62505;46.070;14.492;2023-09-19T03:37:25;24.90;82.40
74153;DHT22;62505;46.070;14.492;2023-09-19T03:39:52;24.90;82.40
74153;DHT22;62505;46.070;14.492;2023-09-19T03:42:20;24.80;82.30
74153;DHT22;62505;46.070;14.492;2023-09-19T03:44:51;24.80;82.30
74153;DHT22;62505;46.070;14.492;2023-09-19T03:47:20;24.80;82.30
74153;DHT22;62505;46.070;14.492;2023-09-19T03:49:47;24.80;82.30
74153;DHT22;62505;46.070;14.492;2023-09-19T03:52:14;24.80;82.20
74153;DHT22;62505;46.070;14.492;2023-09-19T03:54:42;24.80;82.30
74153;DHT22;62505;46.070;14.492;2023-09-19T03:57:09;24.80;82.20
74153;DHT22;62505;46.070;14.492;2023-09-19T03:59:39;24.80;82.20
74153;DHT22;62505;46.070;14.492;2023-09-19T04:02:08;24.80;82.20
74153;DHT22;62505;46.070;14.492;2023-09-19T04:04:38;24.80;82.20
74153;DHT22;62505;46.070;14.492;2023-09-19T04:07:05;24.80;82.20
74153;DHT22;62505;46.070;14.492;2023-09-19T04:09:33;24.80;82.30
74153;DHT22;62505;46.070;14.492;2023-09-19T04:12:00;24.80;82.20
74153;DHT22;62505;46.070;14.492;2023-09-19T04:14:29;24.80;82.10
74153;DHT22;62505;46.070;14.492;2023-09-19T04:16:57;24.80;82.10
74153;DHT22;62505;46.070;14.492;2023-09-19T04:19:24;24.80;82.40
74153;DHT22;62505;46.070;14.492;2023-09-19T04:21:51;24.80;83.40
74153;DHT22;62505;46.070;14.492;2023-09-19T04:24:18;24.80;84.00
74153;DHT22;62505;46.070;14.492;2023-09-19T04:26:45;24.80;83.00
74153;DHT22;62505;46.070;14.492;2023-09-19T04:29:13;24.90;82.90
74153;DHT22;62505;46.070;14.492;2023-09-19T04:31:41;24.80;82.60
74153;DHT22;62505;46.070;14.492;2023-09-19T04:34:11;24.80;82.50
74153;DHT22;62505;46.070;14.492;2023-09-19T04:36:43;24.80;83.20
74153;DHT22;62505;46.070;14.492;2023-09-19T04:39:10;24.80;82.60
74153;DHT22;62505;46.070;14.492;2023-09-19T04:41:38;24.80;82.50
74153;DHT22;62505;46.070;14.492;2023-09-19T04:44:07;24.80;83.40
74153;DHT22;62505;46.070;14.492;2023-09-19T04:46:34;24.90;84.60
74153;DHT22;62505;46.070;14.492;2023-09-19T04:49:01;24.80;83.20
74153;DHT22;62505;46.070;14.492;2023-09-19T04:51:29;24.80;82.70
74153;DHT22;62505;46.070;14.492;2023-09-19T04:54:00;24.80;82.10
74153;DHT22;62505;46.070;14.492;2023-09-19T04:56:26;24.80;82.00
74153;DHT22;62505;46.070;14.492;2023-09-19T04:58:54;24.80;81.90
74153;DHT22;62505;46.070;14.492;2023-09-19T05:01:22;24.80;82.00
74153;DHT22;62505;46.070;14.492;2023-09-19T05:03:49;24.80;82.00
74153;DHT22;62505;46.070;14.492;2023-09-19T05:06:18;24.80;81.60
74153;DHT22;62505;46.070;14.492;2023-09-19T05:08:47;24.80;81.70
74153;DHT22;62505;46.070;14.492;2023-09-19T05:11:17;24.80;81.50
74153;DHT22;62505;46.070;14.492;2023-09-19T05:13:43;24.80;81.50
74153;DHT22;62505;46.070;14.492;2023-09-19T05:16:10;24.80;81.00
74153;DHT22;62505;46.070;14.492;2023-09-19T05:18:37;24.80;81.70
74153;DHT22;62505;46.070;14.492;2023-09-19T05:21:05;24.80;81.40
74153;DHT22;62505;46.070;14.492;2023-09-19T05:23:33;24.80;81.50
74153;DHT22;62505;46.070;14.492;2023-09-19T05:26:01;24.80;81.50
74153;DHT22;62505;46.070;14.492;2023-09-19T05:28:29;24.80;81.80
74153;DHT22;62505;46.070;14.492;2023-09-19T05:31:00;24.80;81.70
74153;DHT22;62505;46.070;14.492;2023-09-19T05:33:28;24.80;81.60
74153;DHT22;62505;46.070;14.492;2023-09-19T05:35:57;24.80;81.70
74153;DHT22;62505;46.070;14.492;2023-09-19T05:38:24;24.80;81.50
74153;DHT22;62505;46.070;14.492;2023-09-19T05:40:53;24.80;81.30
74153;DHT22;62505;46.070;14.492;2023-09-19T05:43:21;24.80;81.70
74153;DHT22;62505;46.070;14.492;2023-09-19T05:45:48;24.80;81.30
74153;DHT22;62505;46.070;14.492;2023-09-19T05:48:18;24.70;81.30
74153;DHT22;62505;46.070;14.492;2023-09-19T05:50:46;24.80;81.60
74153;DHT22;62505;46.070;14.492;2023-09-19T05:53:14;24.80;81.00
74153;DHT22;62505;46.070;14.492;2023-09-19T05:55:41;24.80;81.20
74153;DHT22;62505;46.070;14.492;2023-09-19T05:58:08;24.80;80.70
74153;DHT22;62505;46.070;14.492;2023-09-19T06:00:40;24.80;81.20
74153;DHT22;62505;46.070;14.492;2023-09-19T06:03:10;24.80;80.70
74153;DHT22;62505;46.070;14.492;2023-09-19T06:05:37;24.80;81.20
74153;DHT22;62505;46.070;14.492;2023-09-19T06:08:07;24.80;81.30
74153;DHT22;62505;46.070;14.492;2023-09-19T06:10:35;24.80;81.20
74153;DHT22;62505;46.070;14.492;2023-09-19T06:13:02;24.80;81.40
74153;DHT22;62505;46.070;14.492;2023-09-19T06:15:31;24.80;80.60
74153;DHT22;62505;46.070;14.492;2023-09-19T06:18:00;24.80;81.20
74153;DHT22;62505;46.070;14.492;2023-09-19T06:20:28;24.80;80.20
74153;DHT22;62505;46.070;14.492;2023-09-19T06:22:55;24.80;80.30
74153;DHT22;62505;46.070;14.492;2023-09-19T06:25:23;24.80;80.60
74153;DHT22;62505;46.070;14.492;2023-09-19T06:27:51;24.80;79.80
74153;DHT22;62505;46.070;14.492;2023-09-19T06:30:20;24.80;79.70
74153;DHT22;62505;46.070;14.492;2023-09-19T06:32:49;24.80;80.00
74153;DHT22;62505;46.070;14.492;2023-09-19T06:35:17;24.80;79.50
74153;DHT22;62505;46.070;14.492;2023-09-19T06:37:44;24.80;79.60
74153;DHT22;62505;46.070;14.492;2023-09-19T06:40:12;24.80;79.40
74153;DHT22;62505;46.070;14.492;2023-09-19T06:42:40;24.80;79.50
74153;DHT22;62505;46.070;14.492;2023-09-19T06:45:09;24.80;80.20
74153;DHT22;62505;46.070;14.492;2023-09-19T06:47:37;24.80;79.60
74153;DHT22;62505;46.070;14.492;2023-09-19T06:50:04;24.80;79.20
74153;DHT22;62505;46.070;14.492;2023-09-19T06:52:36;24.80;79.20
74153;DHT22;62505;46.070;14.492;2023-09-19T06:55:03;24.80;79.20
74153;DHT22;62505;46.070;14.492;2023-09-19T06:57:32;24.80;79.30
74153;DHT22;62505;46.070;14.492;2023-09-19T06:59:59;24.80;79.00
74153;DHT22;62505;46.070;14.492;2023-09-19T07:02:27;24.70;78.70
74153;DHT22;62505;46.070;14.492;2023-09-19T07:04:54;24.80;78.80
74153;DHT22;62505;46.070;14.492;2023-09-19T07:07:21;24.70;78.60
74153;DHT22;62505;46.070;14.492;2023-09-19T07:09:49;24.80;78.70
74153;DHT22;62505;46.070;14.492;2023-09-19T07:12:16;24.80;78.60
74153;DHT22;62505;46.070;14.492;2023-09-19T07:14:45;24.70;78.70
74153;DHT22;62505;46.070;14.492;2023-09-19T07:17:12;24.70;78.40
74153;DHT22;62505;46.070;14.492;2023-09-19T07:19:44;24.80;78.30
74153;DHT22;62505;46.070;14.492;2023-09-19T07:22:13;24.80;78.30
74153;DHT22;62505;46.070;14.492;2023-09-19T07:24:40;24.70;78.20
74153;DHT22;62505;46.070;14.492;2023-09-19T07:27:09;24.80;78.10
74153;DHT22;62505;46.070;14.492;2023-09-19T07:29:36;24.70;78.10
74153;DHT22;62505;46.070;14.492;2023-09-19T07:32:04;24.70;78.30
74153;DHT22;62505;46.070;14.492;2023-09-19T07:34:31;24.70;78.40
74153;DHT22;62505;46.070;14.492;2023-09-19T07:36:58;24.70;78.00
74153;DHT22;62505;46.070;14.492;2023-09-19T07:39:25;24.70;77.90
74153;DHT22;62505;46.070;14.492;2023-09-19T07:41:52;24.70;77.90
74153;DHT22;62505;46.070;14.492;2023-09-19T07:44:21;24.70;78.00
74153;DHT22;62505;46.070;14.492;2023-09-19T07:46:48;24.70;77.90
74153;DHT22;62505;46.070;14.492;2023-09-19T07:49:16;24.70;77.70
74153;DHT22;62505;46.070;14.492;2023-09-19T07:51:44;24.70;77.60
74153;DHT22;62505;46.070;14.492;2023-09-19T07:54:14;24.70;77.60
74153;DHT22;62505;46.070;14.492;2023-09-19T07:56:42;24.70;77.40
74153;DHT22;62505;46.070;14.492;2023-09-19T07:59:11;24.70;77.30
74153;DHT22;62505;46.070;14.492;2023-09-19T08:01:40;24.70;77.10
74153;DHT22;62505;46.070;14.492;2023-09-19T08:04:09;24.70;77.60
74153;DHT22;62505;46.070;14.492;2023-09-19T08:06:36;24.70;77.90
74153;DHT22;62505;46.070;14.492;2023-09-19T08:09:04;24.70;77.90
74153;DHT22;62505;46.070;14.492;2023-09-19T08:11:33;24.70;77.50
74153;DHT22;62505;46.070;14.492;2023-09-19T08:14:00;24.70;77.30
74153;DHT22;62505;46.070;14.492;2023-09-19T08:16:27;24.70;77.00
74153;DHT22;62505;46.070;14.492;2023-09-19T08:18:55;24.70;77.30
74153;DHT22;62505;46.070;14.492;2023-09-19T08:21:23;24.70;77.00
74153;DHT22;62505;46.070;14.492;2023-09-19T08:23:51;24.70;76.90
74153;DHT22;62505;46.070;14.492;2023-09-19T08:26:19;24.70;77.10
74153;DHT22;62505;46.070;14.492;2023-09-19T08:28:47;24.70;77.10
74153;DHT22;62505;46.070;14.492;2023-09-19T08:31:16;24.70;77.00
74153;DHT22;62505;46.070;14.492;2023-09-19T08:33:43;24.70;77.40
74153;DHT22;62505;46.070;14.492;2023-09-19T08:36:18;24.70;77.40
74153;DHT22;62505;46.070;14.492;2023-09-19T08:38:45;24.70;77.10
74153;DHT22;62505;46.070;14.492;2023-09-19T08:41:12;24.80;77.10
74153;DHT22;62505;46.070;14.492;2023-09-19T08:43:39;24.70;77.20
74153;DHT22;62505;46.070;14.492;2023-09-19T08:46:10;24.80;77.40
74153;DHT22;62505;46.070;14.492;2023-09-19T08:48:42;24.80;77.00
74153;DHT22;62505;46.070;14.492;2023-09-19T08:51:21;24.70;77.10
74153;DHT22;62505;46.070;14.492;2023-09-19T08:54:01;24.80;77.30
74153;DHT22;62505;46.070;14.492;2023-09-19T08:56:32;24.80;77.30
74153;DHT22;62505;46.070;14.492;2023-09-19T08:59:02;24.80;77.10
74153;DHT22;62505;46.070;14.492;2023-09-19T09:01:31;24.80;76.90
74153;DHT22;62505;46.070;14.492;2023-09-19T09:03:58;24.80;76.60
74153;DHT22;62505;46.070;14.492;2023-09-19T09:06:27;24.70;77.70
74153;DHT22;62505;46.070;14.492;2023-09-19T09:08:55;24.80;78.00
74153;DHT22;62505;46.070;14.492;2023-09-19T09:11:22;24.80;79.20
74153;DHT22;62505;46.070;14.492;2023-09-19T09:13:50;24.80;79.50
74153;DHT22;62505;46.070;14.492;2023-09-19T09:16:17;24.80;80.40
74153;DHT22;62505;46.070;14.492;2023-09-19T09:18:44;24.80;78.80
74153;DHT22;62505;46.070;14.492;2023-09-19T09:21:11;24.80;80.10
74153;DHT22;62505;46.070;14.492;2023-09-19T09:23:41;24.80;81.10
74153;DHT22;62505;46.070;14.492;2023-09-19T09:26:08;24.80;80.70
74153;DHT22;62505;46.070;14.492;2023-09-19T09:28:35;24.80;82.00
74153;DHT22;62505;46.070;14.492;2023-09-19T09:31:22;24.80;83.00
74153;DHT22;62505;46.070;14.492;2023-09-19T09:33:53;24.80;83.00
74153;DHT22;62505;46.070;14.492;2023-09-19T09:36:34;24.80;82.20
74153;DHT22;62505;46.070;14.492;2023-09-19T09:39:04;24.80;81.70
74153;DHT22;62505;46.070;14.492;2023-09-19T09:41:42;24.80;81.00
74153;DHT22;62505;46.070;14.492;2023-09-19T09:44:13;24.80;80.90
74153;DHT22;62505;46.070;14.492;2023-09-19T09:46:42;24.80;79.00
74153;DHT22;62505;46.070;14.492;2023-09-19T09:49:47;24.80;78.50
74153;DHT22;62505;46.070;14.492;2023-09-19T09:52:20;24.80;78.10
74153;DHT22;62505;46.070;14.492;2023-09-19T09:55:01;24.80;78.30
74153;DHT22;62505;46.070;14.492;2023-09-19T09:57:31;24.80;78.00
74153;DHT22;62505;46.070;14.492;2023-09-19T09:59:59;24.80;77.90
74153;DHT22;62505;46.070;14.492;2023-09-19T10:02:42;24.70;77.70
74153;DHT22;62505;46.070;14.492;2023-09-19T10:05:13;24.70;77.70
74153;DHT22;62505;46.070;14.492;2023-09-19T10:07:47;24.70;77.60
74153;DHT22;62505;46.070;14.492;2023-09-19T10:10:30;24.70;77.50
74153;DHT22;62505;46.070;14.492;2023-09-19T10:13:06;24.70;77.10
74153;DHT22;62505;46.070;14.492;2023-09-19T10:15:38;24.70;77.00
74153;DHT22;62505;46.070;14.492;2023-09-19T10:18:07;24.70;77.30
74153;DHT22;62505;46.070;14.492;2023-09-19T10:20:36;24.70;77.20
74153;DHT22;62505;46.070;14.492;2023-09-19T10:23:06;24.70;77.30
74153;DHT22;62505;46.070;14.492;2023-09-19T10:25:39;24.70;77.20
74153;DHT22;62505;46.070;14.492;2023-09-19T10:28:07;24.80;77.80
74153;DHT22;62505;46.070;14.492;2023-09-19T10:30:37;24.80;77.40
74153;DHT22;62505;46.070;14.492;2023-09-19T10:33:09;24.80;77.50
74153;DHT22;62505;46.070;14.492;2023-09-19T10:35:39;24.80;77.80
74153;DHT22;62505;46.070;14.492;2023-09-19T10:38:07;24.70;77.60
74153;DHT22;62505;46.070;14.492;2023-09-19T10:40:38;24.80;77.70
74153;DHT22;62505;46.070;14.492;2023-09-19T10:43:12;24.80;77.50
74153;DHT22;62505;46.070;14.492;2023-09-19T10:45:41;24.80;77.40
74153;DHT22;62505;46.070;14.492;2023-09-19T10:48:10;24.80;77.30
74153;DHT22;62505;46.070;14.492;2023-09-19T10:50:44;24.80;77.10
74153;DHT22;62505;46.070;14.492;2023-09-19T10:53:13;24.80;76.90
74153;DHT22;62505;46.070;14.492;2023-09-19T10:55:51;24.80;76.70
74153;DHT22;62505;46.070;14.492;2023-09-19T10:58:29;24.90;76.80
74153;DHT22;62505;46.070;14.492;2023-09-19T11:01:00;24.90;76.40
74153;DHT22;62505;46.070;14.492;2023-09-19T11:03:37;24.90;76.40
74153;DHT22;62505;46.070;14.492;2023-09-19T11:06:11;24.90;76.40
74153;DHT22;62505;46.070;14.492;2023-09-19T11:08:58;24.90;76.20
74153;DHT22;62505;46.070;14.492;2023-09-19T11:11:50;25.00;75.80
74153;DHT22;62505;46.070;14.492;2023-09-19T11:14:41;25.00;76.20
74153;DHT22;62505;46.070;14.492;2023-09-19T11:17:40;25.00;76.20
74153;DHT22;62505;46.070;14.492;2023-09-19T11:20:23;25.00;76.10
74153;DHT22;62505;46.070;14.492;2023-09-19T11:23:21;25.00;76.00
74153;DHT22;62505;46.070;14.492;2023-09-19T11:25:53;25.00;75.90
74153;DHT22;62505;46.070;14.492;2023-09-19T11:28:34;25.00;75.80
74153;DHT22;62505;46.070;14.492;2023-09-19T11:40:45;25.10;75.10
74153;DHT22;62505;46.070;14.492;2023-09-19T11:43:31;25.10;74.90
74153;DHT22;62505;46.070;14.492;2023-09-19T11:46:06;25.10;74.80
74153;DHT22;62505;46.070;14.492;2023-09-19T11:48:35;25.10;74.80
74153;DHT22;62505;46.070;14.492;2023-09-19T11:51:14;25.10;74.70
74153;DHT22;62505;46.070;14.492;2023-09-19T11:53:50;25.10;74.70
74153;DHT22;62505;46.070;14.492;2023-09-19T11:56:18;25.10;74.70
74153;DHT22;62505;46.070;14.492;2023-09-19T11:58:49;25.10;74.60
74153;DHT22;62505;46.070;14.492;2023-09-19T12:01:22;25.10;74.60
74153;DHT22;62505;46.070;14.492;2023-09-19T12:03:53;25.10;74.60
74153;DHT22;62505;46.070;14.492;2023-09-19T12:06:23;25.10;74.60
74153;DHT22;62505;46.070;14.492;2023-09-19T12:08:50;25.10;74.60
74153;DHT22;62505;46.070;14.492;2023-09-19T12:11:20;25.10;74.50
74153;DHT22;62505;46.070;14.492;2023-09-19T12:13:50;25.10;74.50
74153;DHT22;62505;46.070;14.492;2023-09-19T12:16:19;25.10;74.40
74153;DHT22;62505;46.070;14.492;2023-09-19T12:18:48;25.10;74.40
74153;DHT22;62505;46.070;14.492;2023-09-19T12:21:26;25.10;74.50
74153;DHT22;62505;46.070;14.492;2023-09-19T12:23:59;25.10;74.20
74153;DHT22;62505;46.070;14.492;2023-09-19T12:26:27;25.10;74.20
74153;DHT22;62505;46.070;14.492;2023-09-19T12:28:56;25.10;74.10
74153;DHT22;62505;46.070;14.492;2023-09-19T12:31:24;25.10;74.20
74153;DHT22;62505;46.070;14.492;2023-09-19T12:33:55;25.10;74.50
74153;DHT22;62505;46.070;14.492;2023-09-19T12:36:23;25.10;74.70
74153;DHT22;62505;46.070;14.492;2023-09-19T12:38:55;25.10;74.50
74153;DHT22;62505;46.070;14.492;2023-09-19T12:41:25;25.10;74.30
74153;DHT22;62505;46.070;14.492;2023-09-19T12:43:52;25.10;74.20
74153;DHT22;62505;46.070;14.492;2023-09-19T12:46:22;25.10;74.30
74153;DHT22;62505;46.070;14.492;2023-09-19T12:49:15;25.10;74.40
74153;DHT22;62505;46.070;14.492;2023-09-19T12:51:44;25.10;74.40
74153;DHT22;62505;46.070;14.492;2023-09-19T12:54:11;25.10;74.50
74153;DHT22;62505;46.070;14.492;2023-09-19T12:56:41;25.10;74.50
74153;DHT22;62505;46.070;14.492;2023-09-19T12:59:11;25.10;74.50
74153;DHT22;62505;46.070;14.492;2023-09-19T13:01:41;25.10;74.50
74153;DHT22;62505;46.070;14.492;2023-09-19T13:04:12;25.10;74.50
74153;DHT22;62505;46.070;14.492;2023-09-19T13:06:43;25.10;74.70
74153;DHT22;62505;46.070;14.492;2023-09-19T13:09:11;25.20;74.90
74153;DHT22;62505;46.070;14.492;2023-09-19T13:11:40;25.20;75.00
74153;DHT22;62505;46.070;14.492;2023-09-19T13:14:20;25.20;75.00
74153;DHT22;62505;46.070;14.492;2023-09-19T13:17:00;25.10;75.00
74153;DHT22;62505;46.070;14.492;2023-09-19T13:19:41;25.10;74.80
74153;DHT22;62505;46.070;14.492;2023-09-19T13:22:37;25.20;74.70
74153;DHT22;62505;46.070;14.492;2023-09-19T13:25:06;25.10;74.50
74153;DHT22;62505;46.070;14.492;2023-09-19T13:27:33;25.10;74.20
74153;DHT22;62505;46.070;14.492;2023-09-19T13:30:00;25.10;74.20
74153;DHT22;62505;46.070;14.492;2023-09-19T13:32:29;25.10;74.40
74153;DHT22;62505;46.070;14.492;2023-09-19T13:34:56;25.10;74.30
74153;DHT22;62505;46.070;14.492;2023-09-19T13:37:23;25.20;74.50
74153;DHT22;62505;46.070;14.492;2023-09-19T13:39:52;25.10;74.40
74153;DHT22;62505;46.070;14.492;2023-09-19T13:42:19;25.10;74.60
74153;DHT22;62505;46.070;14.492;2023-09-19T13:44:47;25.20;74.70
74153;DHT22;62505;46.070;14.492;2023-09-19T13:47:14;25.20;74.80
74153;DHT22;62505;46.070;14.492;2023-09-19T13:49:43;25.20;74.60
74153;DHT22;62505;46.070;14.492;2023-09-19T13:52:10;25.30;74.70
74153;DHT22;62505;46.070;14.492;2023-09-19T13:54:38;25.30;74.70
74153;DHT22;62505;46.070;14.492;2023-09-19T13:57:05;25.30;74.70
74153;DHT22;62505;46.070;14.492;2023-09-19T13:59:33;25.30;74.50
74153;DHT22;62505;46.070;14.492;2023-09-19T14:02:00;25.30;74.50
74153;DHT22;62505;46.070;14.492;2023-09-19T14:04:28;25.30;74.50
74153;DHT22;62505;46.070;14.492;2023-09-19T14:06:58;25.30;74.30
74153;DHT22;62505;46.070;14.492;2023-09-19T14:09:26;25.30;74.10
74153;DHT22;62505;46.070;14.492;2023-09-19T14:11:53;25.30;74.00
74153;DHT22;62505;46.070;14.492;2023-09-19T14:14:20;25.30;74.00
74153;DHT22;62505;46.070;14.492;2023-09-19T14:16:47;25.30;74.00
74153;DHT22;62505;46.070;14.492;2023-09-19T14:19:14;25.30;73.90
74153;DHT22;62505;46.070;14.492;2023-09-19T14:21:42;25.40;73.90
74153;DHT22;62505;46.070;14.492;2023-09-19T14:24:10;25.40;73.90
74153;DHT22;62505;46.070;14.492;2023-09-19T14:26:38;25.30;73.90
74153;DHT22;62505;46.070;14.492;2023-09-19T14:29:05;25.40;73.90
74153;DHT22;62505;46.070;14.492;2023-09-19T14:31:33;25.40;73.90
74153;DHT22;62505;46.070;14.492;2023-09-19T14:34:00;25.40;74.00
74153;DHT22;62505;46.070;14.492;2023-09-19T14:36:27;25.40;73.90
74153;DHT22;62505;46.070;14.492;2023-09-19T14:38:55;25.30;73.80
74153;DHT22;62505;46.070;14.492;2023-09-19T14:41:24;25.30;73.90
74153;DHT22;62505;46.070;14.492;2023-09-19T14:43:51;25.30;73.80
74153;DHT22;62505;46.070;14.492;2023-09-19T14:46:18;25.30;73.90
74153;DHT22;62505;46.070;14.492;2023-09-19T14:48:45;25.30;74.60
74153;DHT22;62505;46.070;14.492;2023-09-19T14:51:14;25.30;74.40
74153;DHT22;62505;46.070;14.492;2023-09-19T14:53:41;25.30;74.20
74153;DHT22;62505;46.070;14.492;2023-09-19T14:56:09;25.30;74.10
74153;DHT22;62505;46.070;14.492;2023-09-19T14:58:37;25.30;74.10
74153;DHT22;62505;46.070;14.492;2023-09-19T15:01:08;25.30;74.10
74153;DHT22;62505;46.070;14.492;2023-09-19T15:03:36;25.30;74.20
74153;DHT22;62505;46.070;14.492;2023-09-19T15:06:06;25.30;74.30
74153;DHT22;62505;46.070;14.492;2023-09-19T15:08:35;25.30;74.30
74153;DHT22;62505;46.070;14.492;2023-09-19T15:11:04;25.30;74.30
74153;DHT22;62505;46.070;14.492;2023-09-19T15:13:33;25.30;74.30
74153;DHT22;62505;46.070;14.492;2023-09-19T15:16:02;25.30;74.30
74153;DHT22;62505;46.070;14.492;2023-09-19T15:18:29;25.30;74.20
74153;DHT22;62505;46.070;14.492;2023-09-19T15:20:56;25.30;74.20
74153;DHT22;62505;46.070;14.492;2023-09-19T15:23:23;25.30;74.20
74153;DHT22;62505;46.070;14.492;2023-09-19T15:25:50;25.30;74.20
74153;DHT22;62505;46.070;14.492;2023-09-19T15:28:19;25.30;74.30
74153;DHT22;62505;46.070;14.492;2023-09-19T15:30:48;25.30;74.50
74153;DHT22;62505;46.070;14.492;2023-09-19T15:33:16;25.30;74.60
74153;DHT22;62505;46.070;14.492;2023-09-19T15:35:43;25.30;74.20
74153;DHT22;62505;46.070;14.492;2023-09-19T15:38:11;25.30;74.30
74153;DHT22;62505;46.070;14.492;2023-09-19T15:40:46;25.30;74.30
74153;DHT22;62505;46.070;14.492;2023-09-19T15:43:13;25.30;74.30
74153;DHT22;62505;46.070;14.492;2023-09-19T15:45:40;25.30;74.30